sensor_id;sensor_type;location;lat;lon;timestamp;temperature;humidity
19966;DHT22;10144;50.874;4.762;2023-04-03T00:02:21;2.70;99.90
19966;DHT22;10144;50.874;4.762;2023-04-03T00:04:50;2.60;99.90
19966;DHT22;10144;50.874;4.762;2023-04-03T00:07:15;2.70;99.90
19966;DHT22;10144;50.874;4.762;2023-04-03T00:09:41;2.70;99.90
19966;DHT22;10144;50.874;4.762;2023-04-03T00:12:13;2.70;99.90
19966;DHT22;10144;50.874;4.762;2023-04-03T00:14:44;2.80;99.90
19966;DHT22;10144;50.874;4.762;2023-04-03T00:17:12;2.80;99.90
19966;DHT22;10144;50.874;4.762;2023-04-03T00:19:38;2.70;99.90
19966;DHT22;10144;50.874;4.762;2023-04-03T00:22:10;2.80;99.90
19966;DHT22;10144;50.874;4.762;2023-04-03T00:24:38;2.70;99.90
19966;DHT22;10144;50.874;4.762;2023-04-03T00:27:10;2.60;99.90
19966;DHT22;10144;50.874;4.762;2023-04-03T00:29:39;2.50;99.90
19966;DHT22;10144;50.874;4.762;2023-04-03T00:32:08;2.40;99.90
19966;DHT22;10144;50.874;4.762;2023-04-03T00:34:35;2.30;99.90
19966;DHT22;10144;50.874;4.762;2023-04-03T00:37:07;2.30;99.90
19966;DHT22;10144;50.874;4.762;2023-04-03T00:39:34;2.30;99.90
19966;DHT22;10144;50.874;4.762;2023-04-03T00:42:00;2.40;99.90
19966;DHT22;10144;50.874;4.762;2023-04-03T00:47:13;2.40;99.90
19966;DHT22;10144;50.874;4.762;2023-04-03T00:49:44;2.30;99.90
19966;DHT22;10144;50.874;4.762;2023-04-03T00:52:17;2.30;99.90
19966;DHT22;10144;50.874;4.762;2023-04-03T00:54:46;2.30;99.90
19966;DHT22;10144;50.874;4.762;2023-04-03T00:57:14;2.30;99.90
19966;DHT22;10144;50.874;4.762;2023-04-03T00:59:48;2.30;99.90
19966;DHT22;10144;50.874;4.762;2023-04-03T01:02:16;2.20;99.90
19966;DHT22;10144;50.874;4.762;2023-04-03T01:04:43;2.20;99.90
19966;DHT22;10144;50.874;4.762;2023-04-03T01:07:29;2.10;99.90
19966;DHT22;10144;50.874;4.762;2023-04-03T01:09:58;2.10;99.90
19966;DHT22;10144;50.874;4.762;2023-04-03T01:14:55;2.00;99.90
19966;DHT22;10144;50.874;4.762;2023-04-03T01:17:31;1.90;99.90
19966;DHT22;10144;50.874;4.762;2023-04-03T01:20:31;2.00;99.90
19966;DHT22;10144;50.874;4.762;2023-04-03T01:23:27;2.00;99.90
19966;DHT22;10144;50.874;4.762;2023-04-03T01:25:57;2.00;99.90
19966;DHT22;10144;50.874;4.762;2023-04-03T01:28:32;2.00;99.90
19966;DHT22;10144;50.874;4.762;2023-04-03T01:33:49;2.00;99.90
19966;DHT22;10144;50.874;4.762;2023-04-03T01:36:23;2.00;99.90
19966;DHT22;10144;50.874;4.762;2023-04-03T01:39:00;1.90;99.90
19966;DHT22;10144;50.874;4.762;2023-04-03T01:41:29;1.90;99.90
19966;DHT22;10144;50.874;4.762;2023-04-03T01:43:56;1.90;99.90
19966;DHT22;10144;50.874;4.762;2023-04-03T01:46:25;1.90;99.90
19966;DHT22;10144;50.874;4.762;2023-04-03T01:48:50;1.90;99.90
19966;DHT22;10144;50.874;4.762;2023-04-03T01:51:19;1.80;99.90
19966;DHT22;10144;50.874;4.762;2023-04-03T01:53:48;1.80;99.90
19966;DHT22;10144;50.874;4.762;2023-04-03T01:56:15;1.80;99.90
19966;DHT22;10144;50.874;4.762;2023-04-03T01:58:47;1.80;99.90
19966;DHT22;10144;50.874;4.762;2023-04-03T02:01:17;1.80;99.90
19966;DHT22;10144;50.874;4.762;2023-04-03T02:03:48;1.80;99.90
19966;DHT22;10144;50.874;4.762;2023-04-03T02:06:19;1.80;99.90
19966;DHT22;10144;50.874;4.762;2023-04-03T02:08:44;1.80;99.90
19966;DHT22;10144;50.874;4.762;2023-04-03T02:11:11;1.80;99.90
19966;DHT22;10144;50.874;4.762;2023-04-03T02:13:40;1.80;99.90
19966;DHT22;10144;50.874;4.762;2023-04-03T02:16:10;1.70;99.90
19966;DHT22;10144;50.874;4.762;2023-04-03T02:18:42;1.70;99.90
19966;DHT22;10144;50.874;4.762;2023-04-03T02:21:10;1.70;99.90
19966;DHT22;10144;50.874;4.762;2023-04-03T02:23:42;1.60;99.90
19966;DHT22;10144;50.874;4.762;2023-04-03T02:26:12;1.60;99.90
19966;DHT22;10144;50.874;4.762;2023-04-03T02:28:38;1.60;99.90
19966;DHT22;10144;50.874;4.762;2023-04-03T02:31:10;1.60;99.90
19966;DHT22;10144;50.874;4.762;2023-04-03T02:33:37;1.60;99.90
19966;DHT22;10144;50.874;4.762;2023-04-03T02:36:07;1.50;99.90
19966;DHT22;10144;50.874;4.762;2023-04-03T02:38:38;1.50;99.90
19966;DHT22;10144;50.874;4.762;2023-04-03T02:41:11;1.50;99.90
19966;DHT22;10144;50.874;4.762;2023-04-03T02:43:40;1.40;99.90
19966;DHT22;10144;50.874;4.762;2023-04-03T02:46:09;1.40;99.90
19966;DHT22;10144;50.874;4.762;2023-04-03T02:48:37;1.30;99.90
19966;DHT22;10144;50.874;4.762;2023-04-03T02:51:06;1.30;99.90
19966;DHT22;10144;50.874;4.762;2023-04-03T02:53:32;1.30;99.90
19966;DHT22;10144;50.874;4.762;2023-04-03T02:56:01;1.30;99.90
19966;DHT22;10144;50.874;4.762;2023-04-03T02:58:29;1.30;99.90
19966;DHT22;10144;50.874;4.762;2023-04-03T03:00:58;1.20;99.90
19966;DHT22;10144;50.874;4.762;2023-04-03T03:03:24;1.20;99.90
19966;DHT22;10144;50.874;4.762;2023-04-03T03:05:49;1.20;99.90
19966;DHT22;10144;50.874;4.762;2023-04-03T03:08:18;1.10;99.90
19966;DHT22;10144;50.874;4.762;2023-04-03T03:10:55;1.20;99.90
19966;DHT22;10144;50.874;4.762;2023-04-03T03:13:24;1.10;99.90
19966;DHT22;10144;50.874;4.762;2023-04-03T03:15:56;1.10;99.90
19966;DHT22;10144;50.874;4.762;2023-04-03T03:18:22;1.10;99.90
19966;DHT22;10144;50.874;4.762;2023-04-03T03:20:55;1.10;99.90
19966;DHT22;10144;50.874;4.762;2023-04-03T03:23:25;1.10;99.90
19966;DHT22;10144;50.874;4.762;2023-04-03T03:25:59;1.20;99.90
19966;DHT22;10144;50.874;4.762;2023-04-03T03:28:32;1.20;99.90
19966;DHT22;10144;50.874;4.762;2023-04-03T03:31:01;1.10;99.90
19966;DHT22;10144;50.874;4.762;2023-04-03T03:33:30;1.20;99.90
19966;DHT22;10144;50.874;4.762;2023-04-03T03:36:08;1.10;99.90
19966;DHT22;10144;50.874;4.762;2023-04-03T03:38:33;1.10;99.90
19966;DHT22;10144;50.874;4.762;2023-04-03T03:41:05;1.10;99.90
19966;DHT22;10144;50.874;4.762;2023-04-03T03:43:34;1.20;99.90
19966;DHT22;10144;50.874;4.762;2023-04-03T03:46:03;1.20;99.90
19966;DHT22;10144;50.874;4.762;2023-04-03T03:48:29;1.20;99.90
19966;DHT22;10144;50.874;4.762;2023-04-03T03:50:58;1.10;99.90
19966;DHT22;10144;50.874;4.762;2023-04-03T03:53:29;1.10;99.90
19966;DHT22;10144;50.874;4.762;2023-04-03T03:55:58;1.20;99.90
19966;DHT22;10144;50.874;4.762;2023-04-03T03:58:25;1.30;99.90
19966;DHT22;10144;50.874;4.762;2023-04-03T04:00:51;1.20;99.90
19966;DHT22;10144;50.874;4.762;2023-04-03T04:03:18;1.10;99.90
19966;DHT22;10144;50.874;4.762;2023-04-03T04:05:46;1.00;99.90
19966;DHT22;10144;50.874;4.762;2023-04-03T04:08:12;0.90;99.90
19966;DHT22;10144;50.874;4.762;2023-04-03T04:10:38;0.80;99.90
19966;DHT22;10144;50.874;4.762;2023-04-03T04:13:06;0.80;99.90
19966;DHT22;10144;50.874;4.762;2023-04-03T04:15:33;0.80;99.90
19966;DHT22;10144;50.874;4.762;2023-04-03T04:18:05;0.80;99.90
19966;DHT22;10144;50.874;4.762;2023-04-03T04:20:33;0.80;99.90
19966;DHT22;10144;50.874;4.762;2023-04-03T04:23:02;0.80;99.90
19966;DHT22;10144;50.874;4.762;2023-04-03T04:25:27;0.80;99.90
19966;DHT22;10144;50.874;4.762;2023-04-03T04:27:53;0.80;99.90
19966;DHT22;10144;50.874;4.762;2023-04-03T04:30:20;0.80;99.90
19966;DHT22;10144;50.874;4.762;2023-04-03T04:32:46;0.80;99.90
19966;DHT22;10144;50.874;4.762;2023-04-03T04:35:14;0.80;99.90
19966;DHT22;10144;50.874;4.762;2023-04-03T04:37:40;0.70;99.90
19966;DHT22;10144;50.874;4.762;2023-04-03T04:40:06;0.70;99.90
19966;DHT22;10144;50.874;4.762;2023-04-03T04:42:38;0.80;99.90
19966;DHT22;10144;50.874;4.762;2023-04-03T04:45:06;0.80;99.90
19966;DHT22;10144;50.874;4.762;2023-04-03T04:47:34;0.70;99.90
19966;DHT22;10144;50.874;4.762;2023-04-03T04:50:02;0.70;99.90
19966;DHT22;10144;50.874;4.762;2023-04-03T04:52:33;0.70;99.90
19966;DHT22;10144;50.874;4.762;2023-04-03T04:55:04;0.80;99.90
19966;DHT22;10144;50.874;4.762;2023-04-03T04:57:33;0.90;99.90
19966;DHT22;10144;50.874;4.762;2023-04-03T04:59:58;0.90;99.90
19966;DHT22;10144;50.874;4.762;2023-04-03T05:02:27;1.00;99.90
19966;DHT22;10144;50.874;4.762;2023-04-03T05:04:53;1.10;99.90
19966;DHT22;10144;50.874;4.762;2023-04-03T05:07:22;1.20;99.90
19966;DHT22;10144;50.874;4.762;2023-04-03T05:09:49;1.30;99.90
19966;DHT22;10144;50.874;4.762;2023-04-03T05:12:16;1.20;99.90
19966;DHT22;10144;50.874;4.762;2023-04-03T05:14:48;1.30;99.90
19966;DHT22;10144;50.874;4.762;2023-04-03T05:17:14;1.20;99.90
19966;DHT22;10144;50.874;4.762;2023-04-03T05:19:40;1.20;99.90
19966;DHT22;10144;50.874;4.762;2023-04-03T05:22:06;1.10;99.90
19966;DHT22;10144;50.874;4.762;2023-04-03T05:24:33;1.10;99.90
19966;DHT22;10144;50.874;4.762;2023-04-03T05:26:59;1.00;99.90
19966;DHT22;10144;50.874;4.762;2023-04-03T05:29:26;1.00;99.90
19966;DHT22;10144;50.874;4.762;2023-04-03T05:31:58;1.10;99.90
19966;DHT22;10144;50.874;4.762;2023-04-03T05:34:25;1.10;99.90
19966;DHT22;10144;50.874;4.762;2023-04-03T05:36:52;1.00;99.90
19966;DHT22;10144;50.874;4.762;2023-04-03T05:39:32;0.90;99.90
19966;DHT22;10144;50.874;4.762;2023-04-03T05:42:00;0.90;99.90
19966;DHT22;10144;50.874;4.762;2023-04-03T05:44:26;1.10;99.90
19966;DHT22;10144;50.874;4.762;2023-04-03T05:46:53;1.20;99.90
19966;DHT22;10144;50.874;4.762;2023-04-03T05:49:20;1.40;99.90
19966;DHT22;10144;50.874;4.762;2023-04-03T05:51:46;1.40;99.90
19966;DHT22;10144;50.874;4.762;2023-04-03T05:54:32;1.50;99.90
19966;DHT22;10144;50.874;4.762;2023-04-03T05:56:59;1.60;99.90
19966;DHT22;10144;50.874;4.762;2023-04-03T05:59:25;1.70;99.90
19966;DHT22;10144;50.874;4.762;2023-04-03T06:01:52;1.70;99.90
19966;DHT22;10144;50.874;4.762;2023-04-03T06:04:19;1.70;99.90
19966;DHT22;10144;50.874;4.762;2023-04-03T06:06:50;1.80;99.90
19966;DHT22;10144;50.874;4.762;2023-04-03T06:09:20;2.00;99.90
19966;DHT22;10144;50.874;4.762;2023-04-03T06:11:52;2.30;99.90
19966;DHT22;10144;50.874;4.762;2023-04-03T06:14:18;3.60;99.90
19966;DHT22;10144;50.874;4.762;2023-04-03T06:16:44;4.80;99.90
19966;DHT22;10144;50.874;4.762;2023-04-03T06:19:11;6.70;99.90
19966;DHT22;10144;50.874;4.762;2023-04-03T06:21:37;8.00;99.90
19966;DHT22;10144;50.874;4.762;2023-04-03T06:24:03;8.70;99.90
19966;DHT22;10144;50.874;4.762;2023-04-03T06:26:29;9.00;99.90
19966;DHT22;10144;50.874;4.762;2023-04-03T06:28:55;9.30;99.90
19966;DHT22;10144;50.874;4.762;2023-04-03T06:31:21;9.70;99.90
19966;DHT22;10144;50.874;4.762;2023-04-03T06:33:47;10.70;99.90
19966;DHT22;10144;50.874;4.762;2023-04-03T06:36:13;10.40;99.90
19966;DHT22;10144;50.874;4.762;2023-04-03T06:38:38;10.30;99.90
19966;DHT22;10144;50.874;4.762;2023-04-03T06:41:04;12.10;99.90
19966;DHT22;10144;50.874;4.762;2023-04-03T06:43:30;13.70;99.90
19966;DHT22;10144;50.874;4.762;2023-04-03T06:45:58;14.80;99.90
19966;DHT22;10144;50.874;4.762;2023-04-03T06:48:24;14.50;99.90
19966;DHT22;10144;50.874;4.762;2023-04-03T06:50:49;14.80;99.90
19966;DHT22;10144;50.874;4.762;2023-04-03T06:53:15;13.60;99.90
19966;DHT22;10144;50.874;4.762;2023-04-03T06:55:41;12.40;99.90
19966;DHT22;10144;50.874;4.762;2023-04-03T06:58:06;12.70;99.90
19966;DHT22;10144;50.874;4.762;2023-04-03T07:00:32;12.70;99.90
19966;DHT22;10144;50.874;4.762;2023-04-03T07:02:58;12.40;99.90
19966;DHT22;10144;50.874;4.762;2023-04-03T07:05:25;12.60;99.90
19966;DHT22;10144;50.874;4.762;2023-04-03T07:07:53;12.00;99.90
19966;DHT22;10144;50.874;4.762;2023-04-03T07:10:19;11.60;99.90
19966;DHT22;10144;50.874;4.762;2023-04-03T07:12:44;10.80;99.90
19966;DHT22;10144;50.874;4.762;2023-04-03T07:15:11;10.20;99.90
19966;DHT22;10144;50.874;4.762;2023-04-03T07:17:38;10.10;99.90
19966;DHT22;10144;50.874;4.762;2023-04-03T07:20:04;10.20;99.90
19966;DHT22;10144;50.874;4.762;2023-04-03T07:22:30;10.80;99.90
19966;DHT22;10144;50.874;4.762;2023-04-03T07:24:55;10.40;99.90
19966;DHT22;10144;50.874;4.762;2023-04-03T07:27:21;10.20;99.90
19966;DHT22;10144;50.874;4.762;2023-04-03T07:29:47;10.90;99.90
19966;DHT22;10144;50.874;4.762;2023-04-03T07:32:14;11.20;99.90
19966;DHT22;10144;50.874;4.762;2023-04-03T07:34:40;10.50;99.90
19966;DHT22;10144;50.874;4.762;2023-04-03T07:37:06;10.30;99.90
19966;DHT22;10144;50.874;4.762;2023-04-03T07:39:32;11.20;99.90
19966;DHT22;10144;50.874;4.762;2023-04-03T07:41:58;12.20;99.90
19966;DHT22;10144;50.874;4.762;2023-04-03T07:44:24;13.70;99.90
19966;DHT22;10144;50.874;4.762;2023-04-03T07:46:50;15.40;99.90
19966;DHT22;10144;50.874;4.762;2023-04-03T07:49:16;16.50;99.90
19966;DHT22;10144;50.874;4.762;2023-04-03T07:51:44;15.10;99.90
19966;DHT22;10144;50.874;4.762;2023-04-03T07:54:10;15.60;99.90
19966;DHT22;10144;50.874;4.762;2023-04-03T07:56:36;12.90;99.90
19966;DHT22;10144;50.874;4.762;2023-04-03T07:59:01;11.70;99.90
19966;DHT22;10144;50.874;4.762;2023-04-03T08:01:27;12.60;99.90
19966;DHT22;10144;50.874;4.762;2023-04-03T08:03:53;13.00;99.90
19966;DHT22;10144;50.874;4.762;2023-04-03T08:06:19;13.60;99.90
19966;DHT22;10144;50.874;4.762;2023-04-03T08:08:44;12.90;99.90
19966;DHT22;10144;50.874;4.762;2023-04-03T08:11:14;13.10;99.90
19966;DHT22;10144;50.874;4.762;2023-04-03T08:13:39;11.90;99.90
19966;DHT22;10144;50.874;4.762;2023-04-03T08:16:17;12.40;99.90
19966;DHT22;10144;50.874;4.762;2023-04-03T08:18:46;13.60;99.90
19966;DHT22;10144;50.874;4.762;2023-04-03T08:21:12;13.60;99.90
19966;DHT22;10144;50.874;4.762;2023-04-03T08:23:39;13.70;99.90
19966;DHT22;10144;50.874;4.762;2023-04-03T08:26:15;13.60;99.90
19966;DHT22;10144;50.874;4.762;2023-04-03T08:28:44;14.00;99.90
19966;DHT22;10144;50.874;4.762;2023-04-03T08:31:13;14.50;99.90
19966;DHT22;10144;50.874;4.762;2023-04-03T08:33:39;15.00;99.90
19966;DHT22;10144;50.874;4.762;2023-04-03T08:36:06;14.80;99.90
19966;DHT22;10144;50.874;4.762;2023-04-03T08:38:33;15.20;99.90
19966;DHT22;10144;50.874;4.762;2023-04-03T08:52:56;12.20;99.90
19966;DHT22;10144;50.874;4.762;2023-04-03T08:58:02;13.50;99.90
19966;DHT22;10144;50.874;4.762;2023-04-03T09:00:47;13.80;99.90
19966;DHT22;10144;50.874;4.762;2023-04-03T09:03:19;13.10;99.90
19966;DHT22;10144;50.874;4.762;2023-04-03T09:06:11;12.50;99.90
19966;DHT22;10144;50.874;4.762;2023-04-03T09:09:13;12.20;99.90
19966;DHT22;10144;50.874;4.762;2023-04-03T09:14:26;12.30;99.90
19966;DHT22;10144;50.874;4.762;2023-04-03T09:17:23;11.70;99.90
19966;DHT22;10144;50.874;4.762;2023-04-03T09:22:43;11.80;99.90
19966;DHT22;10144;50.874;4.762;2023-04-03T09:25:22;12.60;99.90
19966;DHT22;10144;50.874;4.762;2023-04-03T09:27:48;13.80;99.90
19966;DHT22;10144;50.874;4.762;2023-04-03T09:30:22;14.60;99.90
19966;DHT22;10144;50.874;4.762;2023-04-03T09:32:51;15.20;99.90
19966;DHT22;10144;50.874;4.762;2023-04-03T09:35:35;14.90;99.90
19966;DHT22;10144;50.874;4.762;2023-04-03T09:40:44;13.40;99.90
19966;DHT22;10144;50.874;4.762;2023-04-03T09:45:43;13.30;99.90
19966;DHT22;10144;50.874;4.762;2023-04-03T09:48:17;13.50;99.90
19966;DHT22;10144;50.874;4.762;2023-04-03T09:50:57;12.60;99.90
19966;DHT22;10144;50.874;4.762;2023-04-03T09:55:58;12.50;99.90
19966;DHT22;10144;50.874;4.762;2023-04-03T09:58:45;12.40;99.90
19966;DHT22;10144;50.874;4.762;2023-04-03T10:04:15;11.90;99.90
19966;DHT22;10144;50.874;4.762;2023-04-03T10:06:55;12.80;99.90
19966;DHT22;10144;50.874;4.762;2023-04-03T10:09:32;15.40;99.90
19966;DHT22;10144;50.874;4.762;2023-04-03T10:12:05;15.40;99.90
19966;DHT22;10144;50.874;4.762;2023-04-03T10:14:54;14.40;99.90
19966;DHT22;10144;50.874;4.762;2023-04-03T10:28:31;13.50;99.90
19966;DHT22;10144;50.874;4.762;2023-04-03T10:36:28;14.20;99.90
19966;DHT22;10144;50.874;4.762;2023-04-03T10:50:02;13.80;99.90
19966;DHT22;10144;50.874;4.762;2023-04-03T10:56:01;14.60;99.10
19966;DHT22;10144;50.874;4.762;2023-04-03T10:58:44;13.80;99.90
19966;DHT22;10144;50.874;4.762;2023-04-03T11:01:16;13.40;99.90
19966;DHT22;10144;50.874;4.762;2023-04-03T11:03:51;13.20;99.90
19966;DHT22;10144;50.874;4.762;2023-04-03T11:06:21;13.70;99.90
19966;DHT22;10144;50.874;4.762;2023-04-03T11:12:02;13.70;99.90
19966;DHT22;10144;50.874;4.762;2023-04-03T11:14:37;13.70;99.90
19966;DHT22;10144;50.874;4.762;2023-04-03T11:17:15;13.80;99.90
19966;DHT22;10144;50.874;4.762;2023-04-03T11:19:57;14.20;99.90
19966;DHT22;10144;50.874;4.762;2023-04-03T11:22:34;14.90;99.20
19966;DHT22;10144;50.874;4.762;2023-04-03T11:27:55;12.70;96.70
19966;DHT22;10144;50.874;4.762;2023-04-03T11:33:27;12.20;95.10
19966;DHT22;10144;50.874;4.762;2023-04-03T11:38:51;13.60;99.90
19966;DHT22;10144;50.874;4.762;2023-04-03T11:41:29;12.90;97.40
19966;DHT22;10144;50.874;4.762;2023-04-03T11:44:04;12.00;97.50
19966;DHT22;10144;50.874;4.762;2023-04-03T12:21:22;13.10;89.20
19966;DHT22;10144;50.874;4.762;2023-04-03T12:24:26;12.80;88.60
19966;DHT22;10144;50.874;4.762;2023-04-03T12:35:51;13.00;87.90
19966;DHT22;10144;50.874;4.762;2023-04-03T12:43:21;13.30;86.50
19966;DHT22;10144;50.874;4.762;2023-04-03T12:46:03;13.80;79.70
19966;DHT22;10144;50.874;4.762;2023-04-03T12:48:32;12.20;84.80
19966;DHT22;10144;50.874;4.762;2023-04-03T12:51:00;11.40;88.50
19966;DHT22;10144;50.874;4.762;2023-04-03T12:53:32;11.50;92.00
19966;DHT22;10144;50.874;4.762;2023-04-03T12:56:19;12.70;91.80
19966;DHT22;10144;50.874;4.762;2023-04-03T12:58:46;13.40;84.20
19966;DHT22;10144;50.874;4.762;2023-04-03T13:01:15;13.50;86.40
19966;DHT22;10144;50.874;4.762;2023-04-03T13:03:47;12.40;87.20
19966;DHT22;10144;50.874;4.762;2023-04-03T13:06:21;12.40;92.20
19966;DHT22;10144;50.874;4.762;2023-04-03T13:08:49;12.50;89.80
19966;DHT22;10144;50.874;4.762;2023-04-03T13:11:15;12.10;90.60
19966;DHT22;10144;50.874;4.762;2023-04-03T13:14:04;11.90;91.40
19966;DHT22;10144;50.874;4.762;2023-04-03T13:16:30;11.20;91.80
19966;DHT22;10144;50.874;4.762;2023-04-03T13:18:57;10.20;92.70
19966;DHT22;10144;50.874;4.762;2023-04-03T13:21:31;10.20;95.90
19966;DHT22;10144;50.874;4.762;2023-04-03T13:24:01;10.50;98.70
19966;DHT22;10144;50.874;4.762;2023-04-03T13:26:31;10.50;96.60
19966;DHT22;10144;50.874;4.762;2023-04-03T13:29:05;10.20;97.40
19966;DHT22;10144;50.874;4.762;2023-04-03T13:31:33;9.90;97.00
19966;DHT22;10144;50.874;4.762;2023-04-03T13:34:16;9.30;99.20
19966;DHT22;10144;50.874;4.762;2023-04-03T13:41:49;9.50;98.10
19966;DHT22;10144;50.874;4.762;2023-04-03T13:44:25;9.70;95.90
19966;DHT22;10144;50.874;4.762;2023-04-03T13:46:52;9.90;96.00
19966;DHT22;10144;50.874;4.762;2023-04-03T13:49:32;10.00;99.90
19966;DHT22;10144;50.874;4.762;2023-04-03T13:51:59;9.90;99.90
19966;DHT22;10144;50.874;4.762;2023-04-03T13:54:33;9.70;98.30
19966;DHT22;10144;50.874;4.762;2023-04-03T13:57:01;9.40;97.00
19966;DHT22;10144;50.874;4.762;2023-04-03T13:59:35;9.50;97.20
19966;DHT22;10144;50.874;4.762;2023-04-03T14:04:53;9.50;99.90
19966;DHT22;10144;50.874;4.762;2023-04-03T14:07:23;9.30;98.80
19966;DHT22;10144;50.874;4.762;2023-04-03T14:09:49;9.20;99.90
19966;DHT22;10144;50.874;4.762;2023-04-03T14:12:19;9.00;97.70
19966;DHT22;10144;50.874;4.762;2023-04-03T14:14:46;9.10;99.90
19966;DHT22;10144;50.874;4.762;2023-04-03T14:17:18;9.30;98.00
19966;DHT22;10144;50.874;4.762;2023-04-03T14:19:45;9.60;97.40
19966;DHT22;10144;50.874;4.762;2023-04-03T14:22:24;9.60;99.90
19966;DHT22;10144;50.874;4.762;2023-04-03T14:24:51;9.30;99.90
19966;DHT22;10144;50.874;4.762;2023-04-03T14:27:24;9.30;99.90
19966;DHT22;10144;50.874;4.762;2023-04-03T14:29:52;9.30;99.90
19966;DHT22;10144;50.874;4.762;2023-04-03T14:32:19;9.40;99.90
19966;DHT22;10144;50.874;4.762;2023-04-03T14:34:46;9.30;99.90
19966;DHT22;10144;50.874;4.762;2023-04-03T14:37:19;9.40;99.90
19966;DHT22;10144;50.874;4.762;2023-04-03T14:39:45;9.30;99.90
19966;DHT22;10144;50.874;4.762;2023-04-03T14:42:13;9.30;99.90
19966;DHT22;10144;50.874;4.762;2023-04-03T14:44:39;9.20;99.90
19966;DHT22;10144;50.874;4.762;2023-04-03T14:47:08;9.20;99.90
19966;DHT22;10144;50.874;4.762;2023-04-03T14:49:34;9.40;99.90
19966;DHT22;10144;50.874;4.762;2023-04-03T14:52:00;9.40;99.90
19966;DHT22;10144;50.874;4.762;2023-04-03T14:54:25;9.50;99.90
19966;DHT22;10144;50.874;4.762;2023-04-03T14:56:53;9.50;99.90
19966;DHT22;10144;50.874;4.762;2023-04-03T14:59:20;9.20;99.90
19966;DHT22;10144;50.874;4.762;2023-04-03T15:01:47;9.10;99.90
19966;DHT22;10144;50.874;4.762;2023-04-03T15:04:14;9.10;99.90
19966;DHT22;10144;50.874;4.762;2023-04-03T15:06:40;9.30;99.90
19966;DHT22;10144;50.874;4.762;2023-04-03T15:09:18;9.30;99.90
19966;DHT22;10144;50.874;4.762;2023-04-03T15:11:44;9.00;99.90
19966;DHT22;10144;50.874;4.762;2023-04-03T15:14:10;9.00;99.90
19966;DHT22;10144;50.874;4.762;2023-04-03T15:16:36;9.00;99.90
19966;DHT22;10144;50.874;4.762;2023-04-03T15:19:02;9.10;99.90
19966;DHT22;10144;50.874;4.762;2023-04-03T15:21:28;9.30;99.90
19966;DHT22;10144;50.874;4.762;2023-04-03T15:23:53;9.40;99.90
19966;DHT22;10144;50.874;4.762;2023-04-03T15:26:19;9.20;99.90
19966;DHT22;10144;50.874;4.762;2023-04-03T15:28:46;9.20;99.90
19966;DHT22;10144;50.874;4.762;2023-04-03T15:31:11;9.00;99.90
19966;DHT22;10144;50.874;4.762;2023-04-03T15:33:38;9.10;99.90
19966;DHT22;10144;50.874;4.762;2023-04-03T15:36:04;9.30;99.90
19966;DHT22;10144;50.874;4.762;2023-04-03T15:38:30;9.30;99.90
19966;DHT22;10144;50.874;4.762;2023-04-03T15:40:55;9.30;99.90
19966;DHT22;10144;50.874;4.762;2023-04-03T15:43:21;9.40;99.90
19966;DHT22;10144;50.874;4.762;2023-04-03T15:45:49;9.50;99.90
19966;DHT22;10144;50.874;4.762;2023-04-03T15:48:15;9.40;99.90
19966;DHT22;10144;50.874;4.762;2023-04-03T15:50:41;9.40;99.90
19966;DHT22;10144;50.874;4.762;2023-04-03T15:53:07;9.40;99.90
19966;DHT22;10144;50.874;4.762;2023-04-03T15:55:35;9.30;99.90
19966;DHT22;10144;50.874;4.762;2023-04-03T15:58:01;9.40;99.90
19966;DHT22;10144;50.874;4.762;2023-04-03T16:00:28;9.50;99.90
19966;DHT22;10144;50.874;4.762;2023-04-03T16:03:05;9.30;99.90
19966;DHT22;10144;50.874;4.762;2023-04-03T16:05:32;9.10;99.90
19966;DHT22;10144;50.874;4.762;2023-04-03T16:07:59;9.10;99.90
19966;DHT22;10144;50.874;4.762;2023-04-03T16:10:25;9.00;99.90
19966;DHT22;10144;50.874;4.762;2023-04-03T16:12:51;9.10;99.90
19966;DHT22;10144;50.874;4.762;2023-04-03T16:15:17;9.10;99.90
19966;DHT22;10144;50.874;4.762;2023-04-03T16:17:43;9.10;99.90
19966;DHT22;10144;50.874;4.762;2023-04-03T16:20:10;9.00;99.90
19966;DHT22;10144;50.874;4.762;2023-04-03T16:22:37;9.00;99.90
19966;DHT22;10144;50.874;4.762;2023-04-03T16:25:04;8.90;99.90
19966;DHT22;10144;50.874;4.762;2023-04-03T16:27:30;8.80;99.90
19966;DHT22;10144;50.874;4.762;2023-04-03T16:29:56;8.70;99.90
19966;DHT22;10144;50.874;4.762;2023-04-03T16:32:26;8.80;99.90
19966;DHT22;10144;50.874;4.762;2023-04-03T16:34:53;8.70;99.90
19966;DHT22;10144;50.874;4.762;2023-04-03T16:37:19;8.70;99.90
19966;DHT22;10144;50.874;4.762;2023-04-03T16:39:45;8.60;99.90
19966;DHT22;10144;50.874;4.762;2023-04-03T16:42:11;8.60;99.90
19966;DHT22;10144;50.874;4.762;2023-04-03T16:44:37;8.60;99.90
19966;DHT22;10144;50.874;4.762;2023-04-03T16:47:03;8.60;99.90
19966;DHT22;10144;50.874;4.762;2023-04-03T16:49:28;8.60;99.90
19966;DHT22;10144;50.874;4.762;2023-04-03T16:52:04;8.60;99.90
19966;DHT22;10144;50.874;4.762;2023-04-03T16:54:31;8.60;99.90
19966;DHT22;10144;50.874;4.762;2023-04-03T16:56:57;8.70;99.90
19966;DHT22;10144;50.874;4.762;2023-04-03T16:59:24;8.60;99.90
19966;DHT22;10144;50.874;4.762;2023-04-03T17:01:50;8.60;99.90
19966;DHT22;10144;50.874;4.762;2023-04-03T17:04:15;8.50;99.90
19966;DHT22;10144;50.874;4.762;2023-04-03T17:06:41;8.50;99.90
19966;DHT22;10144;50.874;4.762;2023-04-03T17:09:07;8.50;99.90
19966;DHT22;10144;50.874;4.762;2023-04-03T17:11:35;8.50;99.90
19966;DHT22;10144;50.874;4.762;2023-04-03T17:14:01;8.40;99.90
19966;DHT22;10144;50.874;4.762;2023-04-03T17:16:28;8.40;99.90
19966;DHT22;10144;50.874;4.762;2023-04-03T17:18:54;8.30;99.90
19966;DHT22;10144;50.874;4.762;2023-04-03T17:21:20;8.20;99.90
19966;DHT22;10144;50.874;4.762;2023-04-03T17:23:50;8.20;99.90
19966;DHT22;10144;50.874;4.762;2023-04-03T17:26:21;8.10;99.90
19966;DHT22;10144;50.874;4.762;2023-04-03T17:28:49;8.10;99.90
19966;DHT22;10144;50.874;4.762;2023-04-03T17:31:15;8.00;99.90
19966;DHT22;10144;50.874;4.762;2023-04-03T17:33:41;8.00;99.90
19966;DHT22;10144;50.874;4.762;2023-04-03T17:36:07;7.90;99.90
19966;DHT22;10144;50.874;4.762;2023-04-03T17:38:36;7.90;99.90
19966;DHT22;10144;50.874;4.762;2023-04-03T17:41:05;7.80;99.90
19966;DHT22;10144;50.874;4.762;2023-04-03T17:43:31;7.80;99.90
19966;DHT22;10144;50.874;4.762;2023-04-03T17:46:06;7.70;99.90
19966;DHT22;10144;50.874;4.762;2023-04-03T17:48:33;7.70;99.90
19966;DHT22;10144;50.874;4.762;2023-04-03T17:51:03;7.60;99.90
19966;DHT22;10144;50.874;4.762;2023-04-03T17:53:30;7.50;99.90
19966;DHT22;10144;50.874;4.762;2023-04-03T17:55:56;7.50;99.90
19966;DHT22;10144;50.874;4.762;2023-04-03T17:58:22;7.50;99.90
19966;DHT22;10144;50.874;4.762;2023-04-03T18:00:47;7.30;99.90
19966;DHT22;10144;50.874;4.762;2023-04-03T18:03:13;7.20;99.90
19966;DHT22;10144;50.874;4.762;2023-04-03T18:05:40;7.20;99.90
19966;DHT22;10144;50.874;4.762;2023-04-03T18:08:06;7.10;99.90
19966;DHT22;10144;50.874;4.762;2023-04-03T18:10:35;7.00;99.90
19966;DHT22;10144;50.874;4.762;2023-04-03T18:13:02;7.00;99.90
19966;DHT22;10144;50.874;4.762;2023-04-03T18:15:29;6.90;99.90